createdAt,value
2017-12-20T00:01:40.434Z,1.79
2017-12-20T00:04:08.030Z,1.81
2017-12-20T00:06:35.695Z,1.79
2017-12-20T00:09:03.383Z,1.72
2017-12-20T00:11:31.045Z,1.70
2017-12-20T00:13:58.703Z,1.68
2017-12-20T00:16:26.302Z,1.65
2017-12-20T00:18:53.901Z,1.70
2017-12-20T00:21:21.611Z,1.62
2017-12-20T00:23:49.271Z,1.57
2017-12-20T00:26:16.879Z,1.53
2017-12-20T00:28:44.532Z,1.46
2017-12-20T00:31:12.144Z,1.44
2017-12-20T00:33:39.747Z,1.41
2017-12-20T00:36:07.398Z,1.40
2017-12-20T00:38:35.064Z,1.36
2017-12-20T00:41:02.718Z,1.39
2017-12-20T00:43:30.358Z,1.36
2017-12-20T00:45:57.971Z,1.38
2017-12-20T00:48:25.579Z,1.34
2017-12-20T00:50:53.251Z,1.32
2017-12-20T00:53:20.859Z,1.27
2017-12-20T00:55:48.458Z,1.23
2017-12-20T00:58:16.179Z,1.20
2017-12-20T01:00:43.781Z,1.18
2017-12-20T01:03:11.492Z,1.16
2017-12-20T01:05:39.232Z,1.18
2017-12-20T01:08:06.859Z,1.13
2017-12-20T01:10:34.458Z,1.13
2017-12-20T01:13:02.111Z,1.14
2017-12-20T01:15:29.715Z,1.13
2017-12-20T01:17:57.306Z,1.17
2017-12-20T01:20:24.971Z,1.15
2017-12-20T01:22:52.579Z,1.14
2017-12-20T01:25:20.239Z,1.13
2017-12-20T01:27:47.962Z,1.07
2017-12-20T01:30:15.566Z,1.00
2017-12-20T01:32:43.227Z,1.00
2017-12-20T01:35:10.893Z,0.94
2017-12-20T01:37:38.495Z,0.85
2017-12-20T01:40:06.098Z,0.72
2017-12-20T01:42:36.591Z,0.66
2017-12-20T01:45:04.196Z,0.54
2017-12-20T01:47:31.867Z,0.45
2017-12-20T01:49:59.547Z,0.37
2017-12-20T01:52:27.203Z,0.33
2017-12-20T01:54:54.855Z,0.25
2017-12-20T01:57:22.533Z,0.25
2017-12-20T01:59:50.192Z,0.15
2017-12-20T02:02:17.787Z,0.08
2017-12-20T02:04:45.434Z,0.05
2017-12-20T02:07:13.096Z,-0.03
2017-12-20T02:09:40.694Z,-0.01
2017-12-20T02:12:08.347Z,-0.05
2017-12-20T02:14:35.944Z,-0.08
2017-12-20T02:17:03.559Z,-0.16
2017-12-20T02:19:31.312Z,-0.18
2017-12-20T02:21:58.924Z,-0.18
2017-12-20T02:24:26.583Z,-0.23
2017-12-20T02:26:54.248Z,-0.29
2017-12-20T02:29:21.851Z,-0.35
2017-12-20T02:31:49.456Z,-0.40
2017-12-20T02:34:17.114Z,-0.46
2017-12-20T02:36:44.722Z,-0.50
2017-12-20T02:39:12.339Z,-0.55
2017-12-20T02:41:40.075Z,-0.59
2017-12-20T02:44:07.699Z,-0.63
2017-12-20T02:46:35.380Z,-0.64
2017-12-20T02:49:03.123Z,-0.68
2017-12-20T02:51:30.743Z,-0.72
2017-12-20T02:53:58.354Z,-0.75
2017-12-20T02:56:26.055Z,-0.81
2017-12-20T02:58:53.803Z,-0.79
2017-12-20T03:01:21.422Z,-0.86
2017-12-20T03:03:49.143Z,-0.89
2017-12-20T03:06:16.774Z,-0.92
2017-12-20T03:08:44.393Z,-0.95
2017-12-20T03:11:12.082Z,-0.90
2017-12-20T03:13:39.727Z,-0.98
2017-12-20T03:16:07.567Z,-1.05
2017-12-20T03:18:35.288Z,-1.03
2017-12-20T03:21:02.898Z,-1.07
2017-12-20T03:23:30.563Z,-1.09
2017-12-20T03:25:58.223Z,-1.14
2017-12-20T03:28:25.827Z,-1.17
2017-12-20T03:30:53.448Z,-1.24
2017-12-20T03:33:21.178Z,-1.24
2017-12-20T03:35:48.860Z,-1.28
2017-12-20T03:38:16.531Z,-1.33
2017-12-20T03:40:44.278Z,-1.32
2017-12-20T03:43:11.957Z,-1.32
2017-12-20T03:45:39.623Z,-1.30
2017-12-20T03:48:07.286Z,-1.29
2017-12-20T03:50:35.004Z,-1.25
2017-12-20T03:53:02.623Z,-1.19
2017-12-20T03:55:47.924Z,-1.10
2017-12-20T03:58:15.522Z,-1.11
2017-12-20T04:00:43.120Z,-1.13
2017-12-20T04:03:10.781Z,-1.20
2017-12-20T04:05:38.435Z,-1.22
2017-12-20T04:08:06.099Z,-1.25
2017-12-20T04:10:33.823Z,-1.31
2017-12-20T04:13:01.431Z,-1.27
2017-12-20T04:15:29.134Z,-1.25
2017-12-20T04:17:56.799Z,-1.20
2017-12-20T04:20:24.410Z,-1.15
2017-12-20T04:22:52.091Z,-1.06
2017-12-20T04:25:19.819Z,-1.06
2017-12-20T04:28:05.020Z,-1.08
2017-12-20T04:30:32.699Z,-1.10
2017-12-20T04:33:00.298Z,-1.03
2017-12-20T04:35:27.907Z,-0.97
2017-12-20T04:37:55.626Z,-1.02
2017-12-20T04:40:23.235Z,-1.06
2017-12-20T04:42:50.846Z,-1.09
2017-12-20T04:45:18.559Z,-1.05
2017-12-20T04:47:46.223Z,-0.98
2017-12-20T04:50:13.827Z,-0.92
2017-12-20T04:52:41.483Z,-0.73
2017-12-20T04:55:09.091Z,-0.69
2017-12-20T04:57:36.702Z,-0.64
2017-12-20T05:00:04.390Z,-0.66
2017-12-20T05:02:32.001Z,-0.70
2017-12-20T05:04:59.609Z,-0.63
2017-12-20T05:07:27.279Z,-0.69
2017-12-20T05:09:54.883Z,-0.73
2017-12-20T05:12:22.490Z,-0.75
2017-12-20T05:14:50.147Z,-0.71
2017-12-20T05:17:17.751Z,-0.67
2017-12-20T05:19:45.362Z,-0.57
2017-12-20T05:22:13.019Z,-0.60
2017-12-20T05:24:40.779Z,-0.49
2017-12-20T05:27:08.378Z,-0.52
2017-12-20T05:29:36.043Z,-0.58
2017-12-20T05:32:03.764Z,-0.62
2017-12-20T05:34:31.366Z,-0.60
2017-12-20T05:36:59.023Z,-0.50
2017-12-20T05:39:26.682Z,-0.51
2017-12-20T05:41:54.348Z,-0.51
2017-12-20T05:44:21.999Z,-0.48
2017-12-20T05:46:49.613Z,-0.45
2017-12-20T05:49:17.279Z,-0.27
2017-12-20T05:51:44.949Z,-0.29
2017-12-20T05:54:12.556Z,-0.32
2017-12-20T05:56:40.164Z,-0.21
2017-12-20T05:59:07.832Z,-0.20
2017-12-20T06:01:35.442Z,-0.20
2017-12-20T06:04:03.049Z,-0.28
2017-12-20T06:06:30.738Z,-0.30
2017-12-20T06:08:58.347Z,-0.21
2017-12-20T06:11:26.015Z,-0.21
2017-12-20T06:13:53.727Z,-0.26
2017-12-20T06:16:21.334Z,-0.33
2017-12-20T06:18:48.934Z,-0.27
2017-12-20T06:21:16.607Z,-0.24
2017-12-20T06:23:44.218Z,-0.15
2017-12-20T06:26:11.887Z,-0.20
2017-12-20T06:28:39.599Z,-0.14
2017-12-20T06:31:07.204Z,-0.08
2017-12-20T06:33:34.867Z,0.02
2017-12-20T06:36:02.588Z,0.05
2017-12-20T06:38:30.219Z,0.14
2017-12-20T06:40:57.823Z,0.21
2017-12-20T06:43:25.502Z,0.29
2017-12-20T06:45:53.164Z,0.41
2017-12-20T06:48:20.762Z,0.52
2017-12-20T06:50:48.424Z,0.59
2017-12-20T06:53:16.088Z,0.72
2017-12-20T06:55:43.691Z,0.82
2017-12-20T06:58:11.351Z,0.94
2017-12-20T07:00:38.955Z,0.98
2017-12-20T07:03:06.612Z,1.10
2017-12-20T07:05:34.352Z,1.15
2017-12-20T07:08:01.959Z,1.20
2017-12-20T07:10:29.619Z,1.30
2017-12-20T07:12:57.303Z,1.38
2017-12-20T07:15:24.964Z,1.46
2017-12-20T07:17:52.563Z,1.50
2017-12-20T07:20:20.283Z,1.52
2017-12-20T07:22:47.948Z,1.52
2017-12-20T07:25:15.551Z,1.55
2017-12-20T07:27:43.267Z,1.54
2017-12-20T07:30:10.935Z,1.62
2017-12-20T07:32:38.539Z,1.72
2017-12-20T07:35:06.275Z,1.74
2017-12-20T07:37:33.896Z,1.86
2017-12-20T07:40:01.508Z,1.93
2017-12-20T07:42:29.219Z,2.05
2017-12-20T07:44:56.827Z,2.04
2017-12-20T07:47:24.489Z,2.14
2017-12-20T07:49:52.235Z,2.26
2017-12-20T07:52:19.899Z,2.32
2017-12-20T07:54:47.503Z,2.40
2017-12-20T07:57:15.223Z,2.44
2017-12-20T07:59:42.888Z,2.46
2017-12-20T08:02:10.491Z,2.63
2017-12-20T08:04:38.151Z,2.61
2017-12-20T08:07:05.755Z,2.68
2017-12-20T08:09:33.365Z,2.75
2017-12-20T08:12:01.056Z,2.84
2017-12-20T08:14:28.655Z,3.05
2017-12-20T08:16:56.316Z,3.05
2017-12-20T08:19:23.971Z,3.18
2017-12-20T08:21:51.571Z,3.34
2017-12-20T08:24:19.175Z,3.33
2017-12-20T08:26:46.834Z,3.27
2017-12-20T08:29:14.438Z,3.30
2017-12-20T08:31:42.049Z,3.28
2017-12-20T08:34:09.716Z,3.44
2017-12-20T08:36:37.381Z,3.48
2017-12-20T08:39:05.091Z,3.56
2017-12-20T08:41:32.809Z,3.74
2017-12-20T08:44:00.419Z,3.82
2017-12-20T08:46:28.025Z,3.96
2017-12-20T08:48:55.775Z,4.11
2017-12-20T08:51:23.444Z,4.22
2017-12-20T08:53:51.047Z,4.38
2017-12-20T08:56:18.702Z,4.49
2017-12-20T08:58:46.303Z,4.63
2017-12-20T09:01:13.905Z,4.55
2017-12-20T09:03:41.568Z,4.46
2017-12-20T09:06:09.231Z,4.78
2017-12-20T09:08:36.835Z,5.12
2017-12-20T09:11:04.491Z,5.40
2017-12-20T09:13:32.095Z,5.40
2017-12-20T09:15:59.730Z,5.67
2017-12-20T09:18:27.443Z,5.56
2017-12-20T09:20:55.119Z,5.63
2017-12-20T09:23:22.784Z,5.80
2017-12-20T09:25:50.503Z,5.74
2017-12-20T09:28:18.103Z,6.03
2017-12-20T09:30:45.710Z,6.43
2017-12-20T09:33:13.375Z,6.61
2017-12-20T09:35:40.983Z,7.27
2017-12-20T09:38:08.584Z,7.32
2017-12-20T09:40:36.255Z,6.93
2017-12-20T09:43:03.915Z,7.00
2017-12-20T09:45:31.515Z,7.29
2017-12-20T09:47:59.192Z,7.04
2017-12-20T09:50:26.791Z,7.34
2017-12-20T09:52:54.391Z,7.29
2017-12-20T09:55:22.133Z,7.53
2017-12-20T09:57:49.793Z,8.03
2017-12-20T10:00:17.527Z,8.28
2017-12-20T10:02:45.191Z,8.39
2017-12-20T10:05:12.804Z,8.00
2017-12-20T10:07:40.469Z,8.17
2017-12-20T10:10:08.179Z,7.97
2017-12-20T10:12:35.803Z,7.02
2017-12-20T10:15:03.502Z,7.15
2017-12-20T10:17:31.175Z,7.52
2017-12-20T10:19:58.790Z,7.32
2017-12-20T10:22:26.395Z,6.80
2017-12-20T10:24:54.047Z,7.15
2017-12-20T10:27:21.655Z,7.11
2017-12-20T10:29:49.315Z,7.10
2017-12-20T10:32:17.049Z,7.52
2017-12-20T10:34:44.706Z,7.83
2017-12-20T10:37:12.307Z,7.69
2017-12-20T10:39:39.982Z,7.68
2017-12-20T10:42:07.678Z,7.38
2017-12-20T10:44:35.295Z,7.33
2017-12-20T10:47:02.954Z,7.32
2017-12-20T10:49:30.559Z,7.56
2017-12-20T10:51:58.159Z,7.94
2017-12-20T10:54:25.899Z,8.82
2017-12-20T10:56:53.560Z,8.63
2017-12-20T10:59:21.162Z,7.62
2017-12-20T11:01:48.836Z,7.55
2017-12-20T11:04:16.438Z,7.29
2017-12-20T11:06:44.114Z,7.41
2017-12-20T11:09:11.847Z,6.90
2017-12-20T11:11:39.526Z,6.50
2017-12-20T11:14:07.330Z,5.63
2017-12-20T11:16:35.051Z,5.28
2017-12-20T11:19:02.724Z,5.15
2017-12-20T11:21:30.403Z,5.04
2017-12-20T11:23:58.134Z,4.91
2017-12-20T11:26:25.867Z,4.66
2017-12-20T11:28:53.599Z,4.40
2017-12-20T11:31:21.371Z,4.20
2017-12-20T11:33:49.050Z,4.10
2017-12-20T11:36:16.718Z,3.96
2017-12-20T11:38:44.447Z,3.96
2017-12-20T11:41:13.036Z,3.95
2017-12-20T11:43:40.775Z,3.98
2017-12-20T11:46:08.507Z,4.01
2017-12-20T11:48:36.244Z,4.00
2017-12-20T11:51:03.980Z,4.12
2017-12-20T11:53:31.768Z,4.23
2017-12-20T11:55:59.443Z,4.15
2017-12-20T11:58:27.115Z,4.26
2017-12-20T12:00:54.859Z,4.44
2017-12-20T12:03:22.530Z,4.62
2017-12-20T12:05:50.227Z,4.90
2017-12-20T12:08:17.994Z,5.03
2017-12-20T12:10:45.670Z,5.00
2017-12-20T12:13:13.399Z,5.04
2017-12-20T12:15:41.138Z,4.95
2017-12-20T12:18:08.867Z,4.95
2017-12-20T12:20:36.649Z,4.92
2017-12-20T12:23:04.494Z,4.71
2017-12-20T12:25:32.276Z,4.53
2017-12-20T12:27:59.947Z,4.29
2017-12-20T12:30:27.801Z,4.22
2017-12-20T12:32:55.539Z,4.30
2017-12-20T12:35:23.218Z,4.08
2017-12-20T12:37:51.095Z,3.93
2017-12-20T12:40:18.781Z,3.90
2017-12-20T12:42:46.451Z,3.86
2017-12-20T12:45:14.235Z,3.74
2017-12-20T12:47:41.911Z,3.70
2017-12-20T12:50:09.591Z,3.56
2017-12-20T12:52:37.343Z,3.52
2017-12-20T12:55:05.087Z,3.49
2017-12-20T12:57:32.763Z,3.71
2017-12-20T13:00:00.491Z,3.90
2017-12-20T13:02:28.163Z,4.15
2017-12-20T13:04:55.895Z,4.29
2017-12-20T13:07:23.623Z,4.38
2017-12-20T13:09:51.359Z,4.44
2017-12-20T13:12:19.103Z,4.31
2017-12-20T13:14:46.827Z,4.35
2017-12-20T13:17:14.503Z,4.32
2017-12-20T13:19:42.175Z,4.20
2017-12-20T13:22:09.971Z,4.18
2017-12-20T13:24:37.651Z,4.07
2017-12-20T13:27:05.330Z,4.00
2017-12-20T13:29:33.066Z,3.96
2017-12-20T13:32:00.807Z,3.96
2017-12-20T13:34:28.550Z,3.80
2017-12-20T13:36:56.274Z,3.70
2017-12-20T13:39:24.012Z,3.68
2017-12-20T13:41:51.763Z,3.66
2017-12-20T13:44:19.486Z,3.49
2017-12-20T13:46:47.228Z,3.51
2017-12-20T13:49:14.903Z,3.50
2017-12-20T13:51:42.626Z,3.48
2017-12-20T13:54:10.314Z,3.36
2017-12-20T13:56:37.987Z,3.40
2017-12-20T13:59:05.715Z,3.40
2017-12-20T14:01:33.398Z,3.28
2017-12-20T14:04:01.083Z,3.31
2017-12-20T14:06:28.811Z,3.18
2017-12-20T14:08:56.548Z,3.21
2017-12-20T14:11:24.284Z,3.12
2017-12-20T14:13:52.084Z,3.20
2017-12-20T14:16:19.758Z,3.09
2017-12-20T14:18:47.431Z,3.08
2017-12-20T14:21:15.159Z,3.10
2017-12-20T14:23:42.888Z,3.07
2017-12-20T14:26:10.633Z,3.08
2017-12-20T14:28:38.354Z,3.07
2017-12-20T14:31:06.037Z,2.97
2017-12-20T14:33:33.711Z,2.95
2017-12-20T14:36:01.435Z,2.85
2017-12-20T14:38:29.102Z,2.72
2017-12-20T14:40:56.835Z,2.70
2017-12-20T14:43:24.647Z,2.71
2017-12-20T14:45:52.391Z,2.62
2017-12-20T14:48:20.114Z,2.60
2017-12-20T14:50:47.971Z,2.60
2017-12-20T14:53:15.642Z,2.57
2017-12-20T14:55:43.338Z,2.54
2017-12-20T14:58:11.085Z,2.53
2017-12-20T15:00:38.867Z,2.53
2017-12-20T15:03:06.631Z,2.55
2017-12-20T15:05:34.395Z,2.49
2017-12-20T15:08:02.128Z,2.48
2017-12-20T15:10:29.811Z,2.39
2017-12-20T15:12:57.543Z,2.39
2017-12-20T15:15:25.277Z,2.38
2017-12-20T15:17:52.951Z,2.39
2017-12-20T15:20:20.681Z,2.41
2017-12-20T15:22:48.356Z,2.43
2017-12-20T15:25:16.036Z,2.44
2017-12-20T15:27:43.826Z,2.49
2017-12-20T15:30:11.534Z,2.46
2017-12-20T15:32:39.236Z,2.51
2017-12-20T15:35:06.993Z,2.54
2017-12-20T15:37:34.732Z,2.48
2017-12-20T15:40:02.468Z,2.36
2017-12-20T15:42:30.265Z,2.32
2017-12-20T15:44:57.987Z,2.39
2017-12-20T15:47:25.725Z,2.37
2017-12-20T15:49:53.483Z,2.47
2017-12-20T15:52:21.171Z,2.45
2017-12-20T15:54:48.915Z,2.48
2017-12-20T15:57:16.703Z,2.47
2017-12-20T15:59:44.450Z,2.45
2017-12-20T16:02:12.244Z,2.39
2017-12-20T16:04:39.972Z,2.31
2017-12-20T16:07:07.736Z,2.35
2017-12-20T16:09:35.412Z,2.31
2017-12-20T16:12:03.148Z,2.32
2017-12-20T16:14:30.829Z,2.36
2017-12-20T16:16:58.506Z,2.37
2017-12-20T16:19:26.239Z,2.43
2017-12-20T16:21:53.915Z,2.46
2017-12-20T16:24:21.591Z,2.49
2017-12-20T16:26:49.324Z,2.49
2017-12-20T16:29:17.004Z,2.40
2017-12-20T16:31:44.755Z,2.49
2017-12-20T16:34:12.486Z,2.44
2017-12-20T16:36:40.175Z,2.48
2017-12-20T16:39:07.851Z,2.44
2017-12-20T16:41:35.586Z,2.41
2017-12-20T16:44:03.263Z,2.41
2017-12-20T16:46:30.971Z,2.45
2017-12-20T16:48:58.714Z,2.40
2017-12-20T16:51:26.452Z,2.48
2017-12-20T16:53:54.187Z,2.48
2017-12-20T16:56:21.987Z,2.43
2017-12-20T16:58:49.670Z,2.46
2017-12-20T17:01:17.350Z,2.48
2017-12-20T17:03:45.144Z,2.48
2017-12-20T17:06:12.827Z,2.52
2017-12-20T17:08:40.556Z,2.51
2017-12-20T17:11:08.356Z,2.52
2017-12-20T17:13:36.027Z,2.55
2017-12-20T17:16:03.707Z,2.53
2017-12-20T17:18:31.445Z,2.54
2017-12-20T17:20:59.122Z,2.47
2017-12-20T17:23:26.842Z,2.47
2017-12-20T17:25:54.640Z,2.41
2017-12-20T17:28:22.314Z,2.46
2017-12-20T17:30:50.051Z,2.43
2017-12-20T17:33:17.783Z,2.42
2017-12-20T17:35:45.523Z,2.34
2017-12-20T17:38:13.271Z,2.38
2017-12-20T17:40:41.072Z,2.36
2017-12-20T17:43:08.765Z,2.34
2017-12-20T17:45:36.443Z,2.37
2017-12-20T17:48:04.278Z,2.39
2017-12-20T17:50:32.040Z,2.38
2017-12-20T17:52:59.740Z,2.41
2017-12-20T17:55:27.479Z,2.42
2017-12-20T17:57:55.211Z,2.49
2017-12-20T18:00:22.967Z,2.49
2017-12-20T18:02:50.751Z,2.53
2017-12-20T18:05:18.430Z,2.54
2017-12-20T18:07:46.113Z,2.51
2017-12-20T18:10:13.971Z,2.46
2017-12-20T18:12:41.699Z,2.47
2017-12-20T18:15:09.439Z,2.51
2017-12-20T18:17:37.231Z,2.49
2017-12-20T18:20:04.964Z,2.43
2017-12-20T18:22:32.747Z,2.40
2017-12-20T18:25:00.838Z,2.42
2017-12-20T18:27:28.572Z,2.46
2017-12-20T18:29:56.495Z,2.50
2017-12-20T18:32:24.243Z,2.55
2017-12-20T18:34:51.995Z,2.50
2017-12-20T18:37:19.747Z,2.54
2017-12-20T18:39:47.484Z,2.56
2017-12-20T18:42:15.159Z,2.56
2017-12-20T18:44:42.891Z,2.54
2017-12-20T18:47:10.722Z,2.49
2017-12-20T18:49:38.403Z,2.51
2017-12-20T18:52:06.163Z,2.56
2017-12-20T18:54:33.927Z,2.58
2017-12-20T18:57:01.611Z,2.59
2017-12-20T18:59:29.328Z,2.56
2017-12-20T19:01:57.078Z,2.49
2017-12-20T19:04:24.756Z,2.49
2017-12-20T19:06:52.491Z,2.40
2017-12-20T19:09:20.326Z,2.44
2017-12-20T19:11:48.012Z,2.44
2017-12-20T19:14:15.691Z,2.44
2017-12-20T19:16:43.420Z,2.46
2017-12-20T19:19:11.089Z,2.49
2017-12-20T19:21:38.819Z,2.50
2017-12-20T19:24:06.553Z,2.48
2017-12-20T19:26:34.227Z,2.50
2017-12-20T19:29:01.934Z,2.49
2017-12-20T19:31:29.735Z,2.52
2017-12-20T19:33:57.475Z,2.53
2017-12-20T19:36:25.211Z,2.45
2017-12-20T19:38:53.014Z,2.37
2017-12-20T19:41:20.703Z,2.32
2017-12-20T19:43:48.381Z,2.30
2017-12-20T19:46:16.181Z,2.34
2017-12-20T19:48:43.858Z,2.35
2017-12-20T19:51:11.596Z,2.32
2017-12-20T19:53:39.333Z,2.30
2017-12-20T19:56:07.018Z,2.37
2017-12-20T19:58:34.706Z,2.31
2017-12-20T20:01:02.436Z,2.30
2017-12-20T20:03:30.179Z,2.26
2017-12-20T20:05:57.863Z,2.29
2017-12-20T20:08:25.662Z,2.29
2017-12-20T20:10:53.339Z,2.29
2017-12-20T20:13:21.019Z,2.32
2017-12-20T20:15:48.755Z,2.28
2017-12-20T20:18:16.488Z,2.31
2017-12-20T20:20:44.232Z,2.37
2017-12-20T20:23:12.854Z,2.35
2017-12-20T20:25:40.590Z,2.29
2017-12-20T20:28:08.324Z,2.26
2017-12-20T20:30:36.125Z,2.31
2017-12-20T20:33:03.807Z,2.26
2017-12-20T20:35:31.481Z,2.27
2017-12-20T20:37:59.307Z,2.30
2017-12-20T20:40:26.987Z,2.36
2017-12-20T20:42:54.727Z,2.39
2017-12-20T20:45:22.521Z,2.40
2017-12-20T20:47:50.190Z,2.43
2017-12-20T20:50:17.879Z,2.42
2017-12-20T20:52:45.660Z,2.42
2017-12-20T20:55:13.391Z,2.37
2017-12-20T20:57:41.119Z,2.35
2017-12-20T21:00:08.860Z,2.28
2017-12-20T21:02:36.550Z,2.25
2017-12-20T21:05:04.226Z,2.20
2017-12-20T21:07:31.951Z,2.23
2017-12-20T21:09:59.634Z,2.24
2017-12-20T21:12:27.367Z,2.21
2017-12-20T21:14:55.102Z,2.22
2017-12-20T21:17:22.781Z,2.15
2017-12-20T21:19:50.520Z,2.15
2017-12-20T21:22:18.306Z,2.13
2017-12-20T21:24:45.979Z,2.13
2017-12-20T21:27:13.715Z,2.14
2017-12-20T21:29:41.453Z,2.17
2017-12-20T21:32:09.130Z,2.20
2017-12-20T21:34:36.868Z,2.12
2017-12-20T21:37:04.683Z,2.13
2017-12-20T21:39:32.360Z,2.13
2017-12-20T21:42:00.104Z,2.12
2017-12-20T21:44:27.888Z,2.18
2017-12-20T21:46:55.567Z,2.18
2017-12-20T21:49:23.307Z,2.14
2017-12-20T21:51:51.046Z,2.13
2017-12-20T21:54:18.723Z,2.04
2017-12-20T21:56:46.415Z,2.11
2017-12-20T21:59:14.223Z,2.07
2017-12-20T22:01:41.951Z,2.11
2017-12-20T22:04:09.633Z,2.15
2017-12-20T22:06:37.371Z,2.08
2017-12-20T22:09:05.107Z,2.15
2017-12-20T22:11:32.860Z,2.18
2017-12-20T22:14:00.594Z,2.17
2017-12-20T22:16:28.323Z,2.13
2017-12-20T22:18:56.003Z,2.12
2017-12-20T22:21:23.789Z,2.11
2017-12-20T22:23:51.478Z,2.14
2017-12-20T22:26:19.218Z,2.18
2017-12-20T22:28:46.942Z,2.16
2017-12-20T22:31:14.638Z,2.10
2017-12-20T22:33:42.338Z,2.12
2017-12-20T22:36:10.110Z,2.04
2017-12-20T22:38:37.797Z,2.08
2017-12-20T22:41:05.489Z,2.08
2017-12-20T22:43:33.294Z,2.12
2017-12-20T22:46:00.977Z,2.16
2017-12-20T22:48:28.686Z,2.12
2017-12-20T22:50:56.415Z,2.11
2017-12-20T22:53:24.155Z,2.07
2017-12-20T22:55:51.827Z,2.09
2017-12-20T22:58:19.567Z,2.10
2017-12-20T23:00:47.407Z,2.14
2017-12-20T23:03:15.085Z,2.09
2017-12-20T23:05:42.807Z,2.09
2017-12-20T23:08:10.487Z,2.09
2017-12-20T23:10:38.166Z,2.07
2017-12-20T23:13:05.956Z,2.09
2017-12-20T23:15:33.631Z,2.12
2017-12-20T23:18:01.368Z,2.08
2017-12-20T23:20:29.096Z,2.12
2017-12-20T23:22:56.775Z,2.11
2017-12-20T23:25:24.511Z,2.14
2017-12-20T23:27:52.317Z,2.10
2017-12-20T23:30:20.051Z,2.07
2017-12-20T23:32:47.780Z,2.10
2017-12-20T23:35:15.515Z,2.16
2017-12-20T23:37:43.266Z,2.20
2017-12-20T23:40:10.947Z,2.18
2017-12-20T23:42:38.699Z,2.08
2017-12-20T23:45:06.383Z,2.03
2017-12-20T23:47:34.057Z,1.96
2017-12-20T23:50:01.786Z,2.04
2017-12-20T23:52:29.468Z,2.04
2017-12-20T23:54:57.203Z,2.04
2017-12-20T23:57:24.943Z,2.08
2017-12-20T23:59:52.618Z,2.08
